<?xml version="1.0" encoding="UTF-8" standalone="no" ?>
<gpx xmlns="http://www.topografix.com/GPX/1/1" xmlns:xsi="http://www.w3.org/2001/XMLSchema-instance" xsi:schemaLocation="http://www.topografix.com/GPX/1/1 http://www.topografix.com/GPX/1/1/gpx.xsd" version="1.1" creator="VisuGPX - https://www.visugpx.com">
  <metadata>
    <name>j05 Queyras, La Monta =&gt; Abriès</name>
    <desc><![CDATA[Au départ de La Monta, montée sur la crête de Peyra Plata, puis sur celle de Gilly, descente dans la forêt par le bois de la Brune et arrivée à Abriès.]]></desc>
  </metadata>
  <trk>
    <name><![CDATA[j05 Queyras, La Monta => Abriès_1]]></name>
    <extensions>
      <line xmlns="http://www.topografix.com/GPX/gpx_style/0/2">
        <color>0000FF</color>
        <width>4</width>
      </line>
    </extensions>
    <trkseg>
      <trkpt lat="44.76628" lon="6.98376">
        <ele>1604.7</ele>
        <time>2021-07-08T06:25:56Z</time>
      </trkpt>
      <trkpt lat="44.76622" lon="6.98386">
        <ele>1615.1</ele>
        <time>2021-07-08T06:26:40Z</time>
      </trkpt>
      <trkpt lat="44.76611" lon="6.98353">
        <ele>1618.8</ele>
        <time>2021-07-08T06:27:10Z</time>
      </trkpt>
      <trkpt lat="44.76614" lon="6.98327">
        <ele>1618.4</ele>
        <time>2021-07-08T06:27:40Z</time>
      </trkpt>
      <trkpt lat="44.76626" lon="6.98287">
        <ele>1617.9</ele>
        <time>2021-07-08T06:28:11Z</time>
      </trkpt>
      <trkpt lat="44.76643" lon="6.98293">
        <ele>1618.2</ele>
        <time>2021-07-08T06:28:41Z</time>
      </trkpt>
      <trkpt lat="44.76658" lon="6.9831">
        <ele>1619.1</ele>
        <time>2021-07-08T06:29:12Z</time>
      </trkpt>
      <trkpt lat="44.76678" lon="6.98323">
        <ele>1618.4</ele>
        <time>2021-07-08T06:29:43Z</time>
      </trkpt>
      <trkpt lat="44.76696" lon="6.98341">
        <ele>1622.9</ele>
        <time>2021-07-08T06:30:13Z</time>
      </trkpt>
      <trkpt lat="44.76718" lon="6.98358">
        <ele>1630.7</ele>
        <time>2021-07-08T06:30:44Z</time>
      </trkpt>
      <trkpt lat="44.76736" lon="6.98374">
        <ele>1632.8</ele>
        <time>2021-07-08T06:31:14Z</time>
      </trkpt>
      <trkpt lat="44.76751" lon="6.98398">
        <ele>1638.3</ele>
        <time>2021-07-08T06:31:45Z</time>
      </trkpt>
      <trkpt lat="44.76756" lon="6.98431">
        <ele>1639.1</ele>
        <time>2021-07-08T06:32:15Z</time>
      </trkpt>
      <trkpt lat="44.76763" lon="6.98459">
        <ele>1645.1</ele>
        <time>2021-07-08T06:32:45Z</time>
      </trkpt>
      <trkpt lat="44.76773" lon="6.98484">
        <ele>1647.9</ele>
        <time>2021-07-08T06:33:16Z</time>
      </trkpt>
      <trkpt lat="44.7678" lon="6.98512">
        <ele>1652.6</ele>
        <time>2021-07-08T06:33:46Z</time>
      </trkpt>
      <trkpt lat="44.76791" lon="6.9854">
        <ele>1658.3</ele>
        <time>2021-07-08T06:34:17Z</time>
      </trkpt>
      <trkpt lat="44.76804" lon="6.98563">
        <ele>1665.5</ele>
        <time>2021-07-08T06:34:48Z</time>
      </trkpt>
      <trkpt lat="44.76822" lon="6.9858">
        <ele>1668.5</ele>
        <time>2021-07-08T06:35:18Z</time>
      </trkpt>
      <trkpt lat="44.76842" lon="6.98579">
        <ele>1669.6</ele>
        <time>2021-07-08T06:35:48Z</time>
      </trkpt>
      <trkpt lat="44.76855" lon="6.98591">
        <ele>1670.7</ele>
        <time>2021-07-08T06:36:19Z</time>
      </trkpt>
      <trkpt lat="44.76866" lon="6.98621">
        <ele>1673.5</ele>
        <time>2021-07-08T06:36:49Z</time>
      </trkpt>
      <trkpt lat="44.76881" lon="6.98643">
        <ele>1677.9</ele>
        <time>2021-07-08T06:37:19Z</time>
      </trkpt>
      <trkpt lat="44.76897" lon="6.98664">
        <ele>1683.2</ele>
        <time>2021-07-08T06:37:50Z</time>
      </trkpt>
      <trkpt lat="44.76913" lon="6.98645">
        <ele>1689.1</ele>
        <time>2021-07-08T06:38:20Z</time>
      </trkpt>
      <trkpt lat="44.76926" lon="6.98618">
        <ele>1693.7</ele>
        <time>2021-07-08T06:38:51Z</time>
      </trkpt>
      <trkpt lat="44.76942" lon="6.98597">
        <ele>1695.9</ele>
        <time>2021-07-08T06:39:22Z</time>
      </trkpt>
      <trkpt lat="44.76961" lon="6.98581">
        <ele>1698.8</ele>
        <time>2021-07-08T06:39:53Z</time>
      </trkpt>
      <trkpt lat="44.76977" lon="6.9856">
        <ele>1698.4</ele>
        <time>2021-07-08T06:40:24Z</time>
      </trkpt>
      <trkpt lat="44.76992" lon="6.98561">
        <ele>1700.4</ele>
        <time>2021-07-08T06:40:55Z</time>
      </trkpt>
      <trkpt lat="44.77006" lon="6.98548">
        <ele>1703.6</ele>
        <time>2021-07-08T06:41:26Z</time>
      </trkpt>
      <trkpt lat="44.77019" lon="6.98534">
        <ele>1708.3</ele>
        <time>2021-07-08T06:41:56Z</time>
      </trkpt>
      <trkpt lat="44.77035" lon="6.98535">
        <ele>1713.1</ele>
        <time>2021-07-08T06:42:27Z</time>
      </trkpt>
      <trkpt lat="44.77044" lon="6.98535">
        <ele>1718.1</ele>
        <time>2021-07-08T06:42:58Z</time>
      </trkpt>
      <trkpt lat="44.77053" lon="6.98509">
        <ele>1719.3</ele>
        <time>2021-07-08T06:43:29Z</time>
      </trkpt>
      <trkpt lat="44.7706" lon="6.98482">
        <ele>1723.5</ele>
        <time>2021-07-08T06:44:00Z</time>
      </trkpt>
      <trkpt lat="44.77073" lon="6.9846">
        <ele>1726.5</ele>
        <time>2021-07-08T06:44:31Z</time>
      </trkpt>
      <trkpt lat="44.77087" lon="6.98448">
        <ele>1730.7</ele>
        <time>2021-07-08T06:45:01Z</time>
      </trkpt>
      <trkpt lat="44.77107" lon="6.98434">
        <ele>1732.2</ele>
        <time>2021-07-08T06:45:32Z</time>
      </trkpt>
      <trkpt lat="44.77116" lon="6.98437">
        <ele>1735.4</ele>
        <time>2021-07-08T06:46:04Z</time>
      </trkpt>
      <trkpt lat="44.77125" lon="6.98432">
        <ele>1739.6</ele>
        <time>2021-07-08T06:46:35Z</time>
      </trkpt>
      <trkpt lat="44.77137" lon="6.98416">
        <ele>1746.8</ele>
        <time>2021-07-08T06:47:06Z</time>
      </trkpt>
      <trkpt lat="44.77154" lon="6.98393">
        <ele>1750.3</ele>
        <time>2021-07-08T06:47:37Z</time>
      </trkpt>
      <trkpt lat="44.77172" lon="6.98393">
        <ele>1752.8</ele>
        <time>2021-07-08T06:48:08Z</time>
      </trkpt>
      <trkpt lat="44.77176" lon="6.98408">
        <ele>1752.6</ele>
        <time>2021-07-08T06:48:38Z</time>
      </trkpt>
      <trkpt lat="44.77182" lon="6.98419">
        <ele>1753.7</ele>
        <time>2021-07-08T06:49:09Z</time>
      </trkpt>
      <trkpt lat="44.77188" lon="6.98434">
        <ele>1756.7</ele>
        <time>2021-07-08T06:49:40Z</time>
      </trkpt>
      <trkpt lat="44.77202" lon="6.98435">
        <ele>1760.8</ele>
        <time>2021-07-08T06:50:10Z</time>
      </trkpt>
      <trkpt lat="44.77214" lon="6.98425">
        <ele>1767.4</ele>
        <time>2021-07-08T06:50:41Z</time>
      </trkpt>
      <trkpt lat="44.77229" lon="6.98433">
        <ele>1770</ele>
        <time>2021-07-08T06:51:12Z</time>
      </trkpt>
      <trkpt lat="44.77242" lon="6.98446">
        <ele>1773.9</ele>
        <time>2021-07-08T06:51:43Z</time>
      </trkpt>
      <trkpt lat="44.77254" lon="6.98446">
        <ele>1779.3</ele>
        <time>2021-07-08T06:52:14Z</time>
      </trkpt>
      <trkpt lat="44.77269" lon="6.98442">
        <ele>1783.8</ele>
        <time>2021-07-08T06:52:44Z</time>
      </trkpt>
      <trkpt lat="44.7728" lon="6.9844">
        <ele>1787.2</ele>
        <time>2021-07-08T06:53:14Z</time>
      </trkpt>
      <trkpt lat="44.77294" lon="6.98426">
        <ele>1789.7</ele>
        <time>2021-07-08T06:53:45Z</time>
      </trkpt>
      <trkpt lat="44.77309" lon="6.98427">
        <ele>1792.9</ele>
        <time>2021-07-08T06:54:16Z</time>
      </trkpt>
      <trkpt lat="44.77319" lon="6.98442">
        <ele>1795.2</ele>
        <time>2021-07-08T06:54:47Z</time>
      </trkpt>
      <trkpt lat="44.7733" lon="6.98444">
        <ele>1798.8</ele>
        <time>2021-07-08T06:55:18Z</time>
      </trkpt>
      <trkpt lat="44.77338" lon="6.98451">
        <ele>1803.5</ele>
        <time>2021-07-08T06:55:51Z</time>
      </trkpt>
      <trkpt lat="44.77345" lon="6.9846">
        <ele>1809.7</ele>
        <time>2021-07-08T06:56:39Z</time>
      </trkpt>
      <trkpt lat="44.77351" lon="6.9848">
        <ele>1813.6</ele>
        <time>2021-07-08T06:57:10Z</time>
      </trkpt>
      <trkpt lat="44.77349" lon="6.98501">
        <ele>1816.2</ele>
        <time>2021-07-08T06:57:41Z</time>
      </trkpt>
      <trkpt lat="44.77354" lon="6.98513">
        <ele>1821.3</ele>
        <time>2021-07-08T06:58:17Z</time>
      </trkpt>
      <trkpt lat="44.7736" lon="6.9853">
        <ele>1822.5</ele>
        <time>2021-07-08T06:58:48Z</time>
      </trkpt>
      <trkpt lat="44.77365" lon="6.98545">
        <ele>1825.9</ele>
        <time>2021-07-08T06:59:19Z</time>
      </trkpt>
      <trkpt lat="44.77377" lon="6.98551">
        <ele>1832.7</ele>
        <time>2021-07-08T06:59:49Z</time>
      </trkpt>
      <trkpt lat="44.77388" lon="6.98562">
        <ele>1837.7</ele>
        <time>2021-07-08T07:00:20Z</time>
      </trkpt>
      <trkpt lat="44.77385" lon="6.98574">
        <ele>1839.9</ele>
        <time>2021-07-08T07:00:50Z</time>
      </trkpt>
      <trkpt lat="44.7739" lon="6.98589">
        <ele>1841.3</ele>
        <time>2021-07-08T07:01:21Z</time>
      </trkpt>
      <trkpt lat="44.77387" lon="6.98604">
        <ele>1847</ele>
        <time>2021-07-08T07:01:51Z</time>
      </trkpt>
      <trkpt lat="44.77378" lon="6.98617">
        <ele>1851.9</ele>
        <time>2021-07-08T07:02:21Z</time>
      </trkpt>
      <trkpt lat="44.77372" lon="6.98627">
        <ele>1855.7</ele>
        <time>2021-07-08T07:06:01Z</time>
      </trkpt>
      <trkpt lat="44.77357" lon="6.98649">
        <ele>1859.5</ele>
        <time>2021-07-08T07:06:32Z</time>
      </trkpt>
      <trkpt lat="44.77359" lon="6.98671">
        <ele>1861.5</ele>
        <time>2021-07-08T07:07:03Z</time>
      </trkpt>
      <trkpt lat="44.77368" lon="6.98686">
        <ele>1864.3</ele>
        <time>2021-07-08T07:07:34Z</time>
      </trkpt>
      <trkpt lat="44.77359" lon="6.98692">
        <ele>1867.6</ele>
        <time>2021-07-08T07:08:13Z</time>
      </trkpt>
      <trkpt lat="44.77358" lon="6.9871">
        <ele>1869.4</ele>
        <time>2021-07-08T07:08:44Z</time>
      </trkpt>
      <trkpt lat="44.77369" lon="6.98716">
        <ele>1872.1</ele>
        <time>2021-07-08T07:09:15Z</time>
      </trkpt>
      <trkpt lat="44.77372" lon="6.98729">
        <ele>1875</ele>
        <time>2021-07-08T07:09:45Z</time>
      </trkpt>
      <trkpt lat="44.77379" lon="6.98743">
        <ele>1876.8</ele>
        <time>2021-07-08T07:10:16Z</time>
      </trkpt>
      <trkpt lat="44.77392" lon="6.98754">
        <ele>1880.3</ele>
        <time>2021-07-08T07:10:47Z</time>
      </trkpt>
      <trkpt lat="44.77397" lon="6.98765">
        <ele>1884.1</ele>
        <time>2021-07-08T07:11:18Z</time>
      </trkpt>
      <trkpt lat="44.7739" lon="6.98776">
        <ele>1888.1</ele>
        <time>2021-07-08T07:11:48Z</time>
      </trkpt>
      <trkpt lat="44.77378" lon="6.98788">
        <ele>1891</ele>
        <time>2021-07-08T07:12:18Z</time>
      </trkpt>
      <trkpt lat="44.77377" lon="6.98802">
        <ele>1894</ele>
        <time>2021-07-08T07:12:52Z</time>
      </trkpt>
      <trkpt lat="44.77383" lon="6.98819">
        <ele>1896</ele>
        <time>2021-07-08T07:13:22Z</time>
      </trkpt>
      <trkpt lat="44.77375" lon="6.98838">
        <ele>1899.6</ele>
        <time>2021-07-08T07:13:53Z</time>
      </trkpt>
      <trkpt lat="44.77377" lon="6.98853">
        <ele>1902.6</ele>
        <time>2021-07-08T07:14:24Z</time>
      </trkpt>
      <trkpt lat="44.77377" lon="6.98866">
        <ele>1907.6</ele>
        <time>2021-07-08T07:15:00Z</time>
      </trkpt>
      <trkpt lat="44.77379" lon="6.9888">
        <ele>1911.4</ele>
        <time>2021-07-08T07:15:30Z</time>
      </trkpt>
      <trkpt lat="44.77387" lon="6.9889">
        <ele>1912.9</ele>
        <time>2021-07-08T07:16:00Z</time>
      </trkpt>
      <trkpt lat="44.77398" lon="6.98905">
        <ele>1914.3</ele>
        <time>2021-07-08T07:16:30Z</time>
      </trkpt>
      <trkpt lat="44.77397" lon="6.98918">
        <ele>1916.1</ele>
        <time>2021-07-08T07:17:01Z</time>
      </trkpt>
      <trkpt lat="44.77401" lon="6.98931">
        <ele>1923</ele>
        <time>2021-07-08T07:17:34Z</time>
      </trkpt>
      <trkpt lat="44.77408" lon="6.98951">
        <ele>1925.4</ele>
        <time>2021-07-08T07:18:04Z</time>
      </trkpt>
      <trkpt lat="44.7741" lon="6.98969">
        <ele>1931.5</ele>
        <time>2021-07-08T07:18:35Z</time>
      </trkpt>
      <trkpt lat="44.7742" lon="6.98987">
        <ele>1934.6</ele>
        <time>2021-07-08T07:19:05Z</time>
      </trkpt>
      <trkpt lat="44.77431" lon="6.99012">
        <ele>1937.4</ele>
        <time>2021-07-08T07:19:36Z</time>
      </trkpt>
      <trkpt lat="44.77448" lon="6.99026">
        <ele>1941.5</ele>
        <time>2021-07-08T07:20:07Z</time>
      </trkpt>
      <trkpt lat="44.77451" lon="6.99042">
        <ele>1946.5</ele>
        <time>2021-07-08T07:20:38Z</time>
      </trkpt>
      <trkpt lat="44.77459" lon="6.99059">
        <ele>1949.1</ele>
        <time>2021-07-08T07:21:09Z</time>
      </trkpt>
      <trkpt lat="44.77466" lon="6.99069">
        <ele>1952.5</ele>
        <time>2021-07-08T07:21:39Z</time>
      </trkpt>
      <trkpt lat="44.77478" lon="6.99082">
        <ele>1961.3</ele>
        <time>2021-07-08T07:22:10Z</time>
      </trkpt>
      <trkpt lat="44.77484" lon="6.99092">
        <ele>1967.9</ele>
        <time>2021-07-08T07:22:46Z</time>
      </trkpt>
      <trkpt lat="44.77496" lon="6.99106">
        <ele>1973.2</ele>
        <time>2021-07-08T07:23:16Z</time>
      </trkpt>
      <trkpt lat="44.77505" lon="6.99115">
        <ele>1974.1</ele>
        <time>2021-07-08T07:23:47Z</time>
      </trkpt>
      <trkpt lat="44.77517" lon="6.99131">
        <ele>1981.4</ele>
        <time>2021-07-08T07:24:18Z</time>
      </trkpt>
      <trkpt lat="44.77529" lon="6.99139">
        <ele>1983.4</ele>
        <time>2021-07-08T07:24:48Z</time>
      </trkpt>
      <trkpt lat="44.7754" lon="6.99155">
        <ele>1987.2</ele>
        <time>2021-07-08T07:25:18Z</time>
      </trkpt>
      <trkpt lat="44.77551" lon="6.9916">
        <ele>1991.6</ele>
        <time>2021-07-08T07:25:49Z</time>
      </trkpt>
      <trkpt lat="44.77556" lon="6.99145">
        <ele>1997.5</ele>
        <time>2021-07-08T07:26:20Z</time>
      </trkpt>
      <trkpt lat="44.77565" lon="6.99135">
        <ele>1997.5</ele>
        <time>2021-07-08T07:26:50Z</time>
      </trkpt>
      <trkpt lat="44.77568" lon="6.99123">
        <ele>2001.8</ele>
        <time>2021-07-08T07:27:21Z</time>
      </trkpt>
      <trkpt lat="44.77576" lon="6.99111">
        <ele>2005.3</ele>
        <time>2021-07-08T07:27:51Z</time>
      </trkpt>
      <trkpt lat="44.77582" lon="6.99095">
        <ele>2011.1</ele>
        <time>2021-07-08T07:28:21Z</time>
      </trkpt>
      <trkpt lat="44.77591" lon="6.9909">
        <ele>2012.3</ele>
        <time>2021-07-08T07:29:07Z</time>
      </trkpt>
      <trkpt lat="44.77602" lon="6.99069">
        <ele>2014.9</ele>
        <time>2021-07-08T07:29:38Z</time>
      </trkpt>
      <trkpt lat="44.77621" lon="6.99064">
        <ele>2016</ele>
        <time>2021-07-08T07:30:08Z</time>
      </trkpt>
      <trkpt lat="44.77641" lon="6.99045">
        <ele>2019.4</ele>
        <time>2021-07-08T07:30:39Z</time>
      </trkpt>
      <trkpt lat="44.77664" lon="6.99044">
        <ele>2025.4</ele>
        <time>2021-07-08T07:31:10Z</time>
      </trkpt>
      <trkpt lat="44.77661" lon="6.99072">
        <ele>2028.9</ele>
        <time>2021-07-08T07:31:41Z</time>
      </trkpt>
      <trkpt lat="44.77676" lon="6.99091">
        <ele>2034</ele>
        <time>2021-07-08T07:32:11Z</time>
      </trkpt>
      <trkpt lat="44.77692" lon="6.9908">
        <ele>2037.9</ele>
        <time>2021-07-08T07:32:42Z</time>
      </trkpt>
      <trkpt lat="44.77709" lon="6.99088">
        <ele>2044.9</ele>
        <time>2021-07-08T07:33:13Z</time>
      </trkpt>
      <trkpt lat="44.77731" lon="6.99077">
        <ele>2052.6</ele>
        <time>2021-07-08T07:33:44Z</time>
      </trkpt>
      <trkpt lat="44.77754" lon="6.99063">
        <ele>2056.8</ele>
        <time>2021-07-08T07:34:14Z</time>
      </trkpt>
      <trkpt lat="44.77769" lon="6.99048">
        <ele>2061.7</ele>
        <time>2021-07-08T07:34:45Z</time>
      </trkpt>
      <trkpt lat="44.77793" lon="6.99029">
        <ele>2064.6</ele>
        <time>2021-07-08T07:35:16Z</time>
      </trkpt>
      <trkpt lat="44.77808" lon="6.99002">
        <ele>2068.1</ele>
        <time>2021-07-08T07:35:47Z</time>
      </trkpt>
      <trkpt lat="44.77827" lon="6.98993">
        <ele>2073.1</ele>
        <time>2021-07-08T07:36:18Z</time>
      </trkpt>
      <trkpt lat="44.77841" lon="6.98994">
        <ele>2076.7</ele>
        <time>2021-07-08T07:36:48Z</time>
      </trkpt>
      <trkpt lat="44.77852" lon="6.98992">
        <ele>2079.7</ele>
        <time>2021-07-08T07:37:18Z</time>
      </trkpt>
      <trkpt lat="44.77863" lon="6.98993">
        <ele>2079.7</ele>
        <time>2021-07-08T07:38:10Z</time>
      </trkpt>
      <trkpt lat="44.77873" lon="6.98996">
        <ele>2082.5</ele>
        <time>2021-07-08T07:38:41Z</time>
      </trkpt>
      <trkpt lat="44.77875" lon="6.99009">
        <ele>2091.2</ele>
        <time>2021-07-08T07:39:38Z</time>
      </trkpt>
      <trkpt lat="44.77888" lon="6.99007">
        <ele>2094.4</ele>
        <time>2021-07-08T07:40:08Z</time>
      </trkpt>
      <trkpt lat="44.77903" lon="6.98999">
        <ele>2100.5</ele>
        <time>2021-07-08T07:40:39Z</time>
      </trkpt>
      <trkpt lat="44.77902" lon="6.99012">
        <ele>2107.3</ele>
        <time>2021-07-08T07:47:27Z</time>
      </trkpt>
      <trkpt lat="44.77908" lon="6.99021">
        <ele>2108</ele>
        <time>2021-07-08T07:47:58Z</time>
      </trkpt>
      <trkpt lat="44.77915" lon="6.99031">
        <ele>2112.9</ele>
        <time>2021-07-08T07:48:42Z</time>
      </trkpt>
      <trkpt lat="44.77921" lon="6.99041">
        <ele>2116.8</ele>
        <time>2021-07-08T07:49:14Z</time>
      </trkpt>
      <trkpt lat="44.77919" lon="6.99055">
        <ele>2119.8</ele>
        <time>2021-07-08T07:49:44Z</time>
      </trkpt>
      <trkpt lat="44.7792" lon="6.9907">
        <ele>2127.8</ele>
        <time>2021-07-08T07:50:42Z</time>
      </trkpt>
      <trkpt lat="44.77929" lon="6.99089">
        <ele>2126.8</ele>
        <time>2021-07-08T07:51:13Z</time>
      </trkpt>
      <trkpt lat="44.7794" lon="6.99094">
        <ele>2127.9</ele>
        <time>2021-07-08T07:51:43Z</time>
      </trkpt>
      <trkpt lat="44.77947" lon="6.99105">
        <ele>2132.4</ele>
        <time>2021-07-08T07:52:14Z</time>
      </trkpt>
      <trkpt lat="44.77957" lon="6.991">
        <ele>2134.5</ele>
        <time>2021-07-08T07:52:44Z</time>
      </trkpt>
      <trkpt lat="44.77968" lon="6.99089">
        <ele>2140.7</ele>
        <time>2021-07-08T07:53:14Z</time>
      </trkpt>
      <trkpt lat="44.77978" lon="6.99074">
        <ele>2146.9</ele>
        <time>2021-07-08T07:53:45Z</time>
      </trkpt>
      <trkpt lat="44.77988" lon="6.99066">
        <ele>2147.5</ele>
        <time>2021-07-08T07:54:16Z</time>
      </trkpt>
      <trkpt lat="44.77997" lon="6.99063">
        <ele>2155</ele>
        <time>2021-07-08T07:55:05Z</time>
      </trkpt>
      <trkpt lat="44.78005" lon="6.99058">
        <ele>2157.1</ele>
        <time>2021-07-08T07:55:52Z</time>
      </trkpt>
      <trkpt lat="44.78011" lon="6.99072">
        <ele>2160.8</ele>
        <time>2021-07-08T07:56:23Z</time>
      </trkpt>
      <trkpt lat="44.78013" lon="6.99087">
        <ele>2160.8</ele>
        <time>2021-07-08T07:56:53Z</time>
      </trkpt>
      <trkpt lat="44.78009" lon="6.991">
        <ele>2166.9</ele>
        <time>2021-07-08T07:57:28Z</time>
      </trkpt>
      <trkpt lat="44.78018" lon="6.991">
        <ele>2170.7</ele>
        <time>2021-07-08T07:58:14Z</time>
      </trkpt>
      <trkpt lat="44.78025" lon="6.99113">
        <ele>2171.2</ele>
        <time>2021-07-08T07:58:45Z</time>
      </trkpt>
      <trkpt lat="44.78023" lon="6.99093">
        <ele>2172.9</ele>
        <time>2021-07-08T07:59:16Z</time>
      </trkpt>
      <trkpt lat="44.78035" lon="6.99089">
        <ele>2177.1</ele>
        <time>2021-07-08T07:59:47Z</time>
      </trkpt>
      <trkpt lat="44.78042" lon="6.99081">
        <ele>2182.3</ele>
        <time>2021-07-08T08:00:40Z</time>
      </trkpt>
      <trkpt lat="44.78053" lon="6.9907">
        <ele>2188</ele>
        <time>2021-07-08T08:01:10Z</time>
      </trkpt>
      <trkpt lat="44.78063" lon="6.99083">
        <ele>2193.8</ele>
        <time>2021-07-08T08:01:41Z</time>
      </trkpt>
      <trkpt lat="44.78063" lon="6.991">
        <ele>2200.5</ele>
        <time>2021-07-08T08:02:11Z</time>
      </trkpt>
      <trkpt lat="44.7806" lon="6.99125">
        <ele>2205</ele>
        <time>2021-07-08T08:02:41Z</time>
      </trkpt>
      <trkpt lat="44.78072" lon="6.99126">
        <ele>2209.5</ele>
        <time>2021-07-08T08:03:12Z</time>
      </trkpt>
      <trkpt lat="44.78082" lon="6.99109">
        <ele>2210.4</ele>
        <time>2021-07-08T08:03:42Z</time>
      </trkpt>
      <trkpt lat="44.78094" lon="6.99103">
        <ele>2211.3</ele>
        <time>2021-07-08T08:04:13Z</time>
      </trkpt>
      <trkpt lat="44.78102" lon="6.99095">
        <ele>2213.9</ele>
        <time>2021-07-08T08:04:43Z</time>
      </trkpt>
      <trkpt lat="44.78112" lon="6.99096">
        <ele>2213.1</ele>
        <time>2021-07-08T08:05:18Z</time>
      </trkpt>
      <trkpt lat="44.78121" lon="6.99095">
        <ele>2216</ele>
        <time>2021-07-08T08:05:55Z</time>
      </trkpt>
      <trkpt lat="44.78128" lon="6.99086">
        <ele>2218.8</ele>
        <time>2021-07-08T08:06:26Z</time>
      </trkpt>
      <trkpt lat="44.7814" lon="6.99078">
        <ele>2223.8</ele>
        <time>2021-07-08T08:06:56Z</time>
      </trkpt>
      <trkpt lat="44.78151" lon="6.99066">
        <ele>2229.3</ele>
        <time>2021-07-08T08:07:26Z</time>
      </trkpt>
      <trkpt lat="44.78162" lon="6.99047">
        <ele>2236.3</ele>
        <time>2021-07-08T08:07:57Z</time>
      </trkpt>
      <trkpt lat="44.78173" lon="6.99051">
        <ele>2242.5</ele>
        <time>2021-07-08T08:08:27Z</time>
      </trkpt>
      <trkpt lat="44.78173" lon="6.99079">
        <ele>2247.5</ele>
        <time>2021-07-08T08:08:58Z</time>
      </trkpt>
      <trkpt lat="44.7818" lon="6.99086">
        <ele>2248.7</ele>
        <time>2021-07-08T08:09:28Z</time>
      </trkpt>
      <trkpt lat="44.78187" lon="6.99076">
        <ele>2247.5</ele>
        <time>2021-07-08T08:09:58Z</time>
      </trkpt>
      <trkpt lat="44.78198" lon="6.99058">
        <ele>2249.7</ele>
        <time>2021-07-08T08:10:29Z</time>
      </trkpt>
      <trkpt lat="44.78204" lon="6.99043">
        <ele>2251.5</ele>
        <time>2021-07-08T08:11:00Z</time>
      </trkpt>
      <trkpt lat="44.78216" lon="6.99045">
        <ele>2260.4</ele>
        <time>2021-07-08T08:11:53Z</time>
      </trkpt>
      <trkpt lat="44.78227" lon="6.99072">
        <ele>2263.8</ele>
        <time>2021-07-08T08:12:24Z</time>
      </trkpt>
      <trkpt lat="44.78229" lon="6.99101">
        <ele>2266.9</ele>
        <time>2021-07-08T08:12:55Z</time>
      </trkpt>
      <trkpt lat="44.78238" lon="6.99099">
        <ele>2271.6</ele>
        <time>2021-07-08T08:13:32Z</time>
      </trkpt>
      <trkpt lat="44.78245" lon="6.99076">
        <ele>2272.7</ele>
        <time>2021-07-08T08:14:02Z</time>
      </trkpt>
      <trkpt lat="44.78259" lon="6.9909">
        <ele>2278.1</ele>
        <time>2021-07-08T08:14:33Z</time>
      </trkpt>
      <trkpt lat="44.78267" lon="6.99103">
        <ele>2284.6</ele>
        <time>2021-07-08T08:15:04Z</time>
      </trkpt>
      <trkpt lat="44.78273" lon="6.99094">
        <ele>2284.9</ele>
        <time>2021-07-08T08:15:41Z</time>
      </trkpt>
      <trkpt lat="44.78281" lon="6.99077">
        <ele>2287.3</ele>
        <time>2021-07-08T08:16:11Z</time>
      </trkpt>
      <trkpt lat="44.7829" lon="6.99051">
        <ele>2290</ele>
        <time>2021-07-08T08:16:42Z</time>
      </trkpt>
      <trkpt lat="44.78294" lon="6.99034">
        <ele>2292.3</ele>
        <time>2021-07-08T08:17:13Z</time>
      </trkpt>
      <trkpt lat="44.78298" lon="6.99019">
        <ele>2294.2</ele>
        <time>2021-07-08T08:17:44Z</time>
      </trkpt>
      <trkpt lat="44.78297" lon="6.99006">
        <ele>2295.4</ele>
        <time>2021-07-08T08:18:41Z</time>
      </trkpt>
      <trkpt lat="44.78294" lon="6.98991">
        <ele>2299.4</ele>
        <time>2021-07-08T08:19:11Z</time>
      </trkpt>
      <trkpt lat="44.78302" lon="6.98983">
        <ele>2303.5</ele>
        <time>2021-07-08T08:20:25Z</time>
      </trkpt>
      <trkpt lat="44.78309" lon="6.98976">
        <ele>2304.9</ele>
        <time>2021-07-08T08:21:24Z</time>
      </trkpt>
      <trkpt lat="44.78316" lon="6.98967">
        <ele>2310.7</ele>
        <time>2021-07-08T08:35:44Z</time>
      </trkpt>
      <trkpt lat="44.78312" lon="6.98978">
        <ele>2305.6</ele>
        <time>2021-07-08T08:38:03Z</time>
      </trkpt>
      <trkpt lat="44.78326" lon="6.98978">
        <ele>2309.9</ele>
        <time>2021-07-08T08:38:34Z</time>
      </trkpt>
      <trkpt lat="44.78326" lon="6.98961">
        <ele>2308.7</ele>
        <time>2021-07-08T08:39:04Z</time>
      </trkpt>
      <trkpt lat="44.78326" lon="6.98936">
        <ele>2312.7</ele>
        <time>2021-07-08T08:39:35Z</time>
      </trkpt>
      <trkpt lat="44.78329" lon="6.98923">
        <ele>2322.8</ele>
        <time>2021-07-08T08:40:12Z</time>
      </trkpt>
      <trkpt lat="44.78336" lon="6.98911">
        <ele>2325.4</ele>
        <time>2021-07-08T08:40:43Z</time>
      </trkpt>
      <trkpt lat="44.78343" lon="6.98889">
        <ele>2330.3</ele>
        <time>2021-07-08T08:41:13Z</time>
      </trkpt>
      <trkpt lat="44.78352" lon="6.98877">
        <ele>2332.3</ele>
        <time>2021-07-08T08:41:44Z</time>
      </trkpt>
      <trkpt lat="44.78356" lon="6.98892">
        <ele>2336.3</ele>
        <time>2021-07-08T08:42:15Z</time>
      </trkpt>
      <trkpt lat="44.78364" lon="6.98895">
        <ele>2340.1</ele>
        <time>2021-07-08T08:42:45Z</time>
      </trkpt>
      <trkpt lat="44.78373" lon="6.98874">
        <ele>2344.1</ele>
        <time>2021-07-08T08:43:16Z</time>
      </trkpt>
      <trkpt lat="44.78379" lon="6.98855">
        <ele>2344.8</ele>
        <time>2021-07-08T08:43:47Z</time>
      </trkpt>
      <trkpt lat="44.78378" lon="6.98831">
        <ele>2350.5</ele>
        <time>2021-07-08T08:44:17Z</time>
      </trkpt>
      <trkpt lat="44.7839" lon="6.98805">
        <ele>2352.1</ele>
        <time>2021-07-08T08:44:51Z</time>
      </trkpt>
      <trkpt lat="44.78396" lon="6.98795">
        <ele>2357.7</ele>
        <time>2021-07-08T08:47:11Z</time>
      </trkpt>
      <trkpt lat="44.78405" lon="6.98763">
        <ele>2352.6</ele>
        <time>2021-07-08T08:47:42Z</time>
      </trkpt>
      <trkpt lat="44.78422" lon="6.98727">
        <ele>2352.4</ele>
        <time>2021-07-08T08:48:13Z</time>
      </trkpt>
      <trkpt lat="44.78424" lon="6.98699">
        <ele>2355.9</ele>
        <time>2021-07-08T08:48:44Z</time>
      </trkpt>
      <trkpt lat="44.78429" lon="6.98667">
        <ele>2358.3</ele>
        <time>2021-07-08T08:49:15Z</time>
      </trkpt>
      <trkpt lat="44.78437" lon="6.98641">
        <ele>2362.1</ele>
        <time>2021-07-08T08:49:46Z</time>
      </trkpt>
      <trkpt lat="44.78445" lon="6.98602">
        <ele>2362.8</ele>
        <time>2021-07-08T08:50:16Z</time>
      </trkpt>
      <trkpt lat="44.78455" lon="6.98571">
        <ele>2363.4</ele>
        <time>2021-07-08T08:50:49Z</time>
      </trkpt>
      <trkpt lat="44.7848" lon="6.98528">
        <ele>2358.6</ele>
        <time>2021-07-08T08:51:19Z</time>
      </trkpt>
      <trkpt lat="44.78502" lon="6.98497">
        <ele>2361.2</ele>
        <time>2021-07-08T08:51:50Z</time>
      </trkpt>
      <trkpt lat="44.78512" lon="6.98458">
        <ele>2356.3</ele>
        <time>2021-07-08T08:52:21Z</time>
      </trkpt>
      <trkpt lat="44.78533" lon="6.98435">
        <ele>2355.5</ele>
        <time>2021-07-08T08:52:52Z</time>
      </trkpt>
      <trkpt lat="44.78555" lon="6.98426">
        <ele>2358.4</ele>
        <time>2021-07-08T08:53:23Z</time>
      </trkpt>
      <trkpt lat="44.78581" lon="6.98417">
        <ele>2363.9</ele>
        <time>2021-07-08T08:53:54Z</time>
      </trkpt>
      <trkpt lat="44.786" lon="6.98414">
        <ele>2368.8</ele>
        <time>2021-07-08T08:54:24Z</time>
      </trkpt>
      <trkpt lat="44.78619" lon="6.98405">
        <ele>2369.6</ele>
        <time>2021-07-08T08:54:57Z</time>
      </trkpt>
      <trkpt lat="44.78644" lon="6.98383">
        <ele>2370.8</ele>
        <time>2021-07-08T08:55:27Z</time>
      </trkpt>
      <trkpt lat="44.78667" lon="6.98376">
        <ele>2370.1</ele>
        <time>2021-07-08T08:55:58Z</time>
      </trkpt>
      <trkpt lat="44.78665" lon="6.98391">
        <ele>2375.7</ele>
        <time>2021-07-08T08:56:29Z</time>
      </trkpt>
      <trkpt lat="44.78672" lon="6.98407">
        <ele>2377.9</ele>
        <time>2021-07-08T08:57:00Z</time>
      </trkpt>
      <trkpt lat="44.78688" lon="6.98412">
        <ele>2384.5</ele>
        <time>2021-07-08T08:57:31Z</time>
      </trkpt>
      <trkpt lat="44.78697" lon="6.98408">
        <ele>2381.9</ele>
        <time>2021-07-08T08:58:02Z</time>
      </trkpt>
      <trkpt lat="44.78709" lon="6.98394">
        <ele>2383.1</ele>
        <time>2021-07-08T08:58:33Z</time>
      </trkpt>
      <trkpt lat="44.78717" lon="6.98387">
        <ele>2391.4</ele>
        <time>2021-07-08T08:59:05Z</time>
      </trkpt>
      <trkpt lat="44.78734" lon="6.98372">
        <ele>2396.3</ele>
        <time>2021-07-08T08:59:36Z</time>
      </trkpt>
      <trkpt lat="44.7874" lon="6.98387">
        <ele>2404.4</ele>
        <time>2021-07-08T09:00:07Z</time>
      </trkpt>
      <trkpt lat="44.7875" lon="6.98383">
        <ele>2408.4</ele>
        <time>2021-07-08T09:00:37Z</time>
      </trkpt>
      <trkpt lat="44.78756" lon="6.98393">
        <ele>2414.3</ele>
        <time>2021-07-08T09:01:08Z</time>
      </trkpt>
      <trkpt lat="44.78752" lon="6.98414">
        <ele>2416.8</ele>
        <time>2021-07-08T09:01:39Z</time>
      </trkpt>
      <trkpt lat="44.7876" lon="6.98421">
        <ele>2418.8</ele>
        <time>2021-07-08T09:02:12Z</time>
      </trkpt>
      <trkpt lat="44.78771" lon="6.9842">
        <ele>2421</ele>
        <time>2021-07-08T09:02:45Z</time>
      </trkpt>
      <trkpt lat="44.78778" lon="6.98413">
        <ele>2427.4</ele>
        <time>2021-07-08T09:03:20Z</time>
      </trkpt>
      <trkpt lat="44.78789" lon="6.98407">
        <ele>2432</ele>
        <time>2021-07-08T09:03:50Z</time>
      </trkpt>
      <trkpt lat="44.78795" lon="6.98383">
        <ele>2434.5</ele>
        <time>2021-07-08T09:04:21Z</time>
      </trkpt>
      <trkpt lat="44.78806" lon="6.98355">
        <ele>2436.7</ele>
        <time>2021-07-08T09:04:51Z</time>
      </trkpt>
      <trkpt lat="44.78812" lon="6.98346">
        <ele>2442.9</ele>
        <time>2021-07-08T09:07:28Z</time>
      </trkpt>
      <trkpt lat="44.78819" lon="6.98357">
        <ele>2444.3</ele>
        <time>2021-07-08T09:07:58Z</time>
      </trkpt>
      <trkpt lat="44.78821" lon="6.98381">
        <ele>2447.5</ele>
        <time>2021-07-08T09:08:29Z</time>
      </trkpt>
      <trkpt lat="44.78836" lon="6.98387">
        <ele>2452.7</ele>
        <time>2021-07-08T09:09:00Z</time>
      </trkpt>
      <trkpt lat="44.78851" lon="6.98382">
        <ele>2457.6</ele>
        <time>2021-07-08T09:09:30Z</time>
      </trkpt>
      <trkpt lat="44.78858" lon="6.98351">
        <ele>2460.9</ele>
        <time>2021-07-08T09:10:00Z</time>
      </trkpt>
      <trkpt lat="44.78863" lon="6.98334">
        <ele>2462</ele>
        <time>2021-07-08T09:10:31Z</time>
      </trkpt>
      <trkpt lat="44.78869" lon="6.98304">
        <ele>2462.9</ele>
        <time>2021-07-08T09:11:01Z</time>
      </trkpt>
      <trkpt lat="44.78877" lon="6.98279">
        <ele>2463.7</ele>
        <time>2021-07-08T09:11:32Z</time>
      </trkpt>
      <trkpt lat="44.7888" lon="6.98265">
        <ele>2469.2</ele>
        <time>2021-07-08T09:12:03Z</time>
      </trkpt>
      <trkpt lat="44.78885" lon="6.98243">
        <ele>2471.4</ele>
        <time>2021-07-08T09:12:33Z</time>
      </trkpt>
      <trkpt lat="44.78896" lon="6.98224">
        <ele>2477.5</ele>
        <time>2021-07-08T09:13:03Z</time>
      </trkpt>
      <trkpt lat="44.78899" lon="6.9819">
        <ele>2483.5</ele>
        <time>2021-07-08T09:13:34Z</time>
      </trkpt>
      <trkpt lat="44.78909" lon="6.98161">
        <ele>2488.9</ele>
        <time>2021-07-08T09:14:05Z</time>
      </trkpt>
      <trkpt lat="44.78918" lon="6.98141">
        <ele>2492.1</ele>
        <time>2021-07-08T09:14:35Z</time>
      </trkpt>
      <trkpt lat="44.78929" lon="6.98113">
        <ele>2494.1</ele>
        <time>2021-07-08T09:15:06Z</time>
      </trkpt>
      <trkpt lat="44.78936" lon="6.98091">
        <ele>2491.9</ele>
        <time>2021-07-08T09:15:36Z</time>
      </trkpt>
      <trkpt lat="44.78945" lon="6.98067">
        <ele>2497.8</ele>
        <time>2021-07-08T09:16:07Z</time>
      </trkpt>
      <trkpt lat="44.78952" lon="6.98055">
        <ele>2502.7</ele>
        <time>2021-07-08T09:16:37Z</time>
      </trkpt>
      <trkpt lat="44.78954" lon="6.98042">
        <ele>2504.2</ele>
        <time>2021-07-08T09:17:07Z</time>
      </trkpt>
      <trkpt lat="44.78956" lon="6.98029">
        <ele>2506.8</ele>
        <time>2021-07-08T09:25:49Z</time>
      </trkpt>
      <trkpt lat="44.78959" lon="6.98006">
        <ele>2505.3</ele>
        <time>2021-07-08T09:26:20Z</time>
      </trkpt>
      <trkpt lat="44.7897" lon="6.9797">
        <ele>2505.2</ele>
        <time>2021-07-08T09:26:52Z</time>
      </trkpt>
      <trkpt lat="44.78987" lon="6.97928">
        <ele>2508.1</ele>
        <time>2021-07-08T09:27:22Z</time>
      </trkpt>
      <trkpt lat="44.78997" lon="6.97894">
        <ele>2507.6</ele>
        <time>2021-07-08T09:27:52Z</time>
      </trkpt>
      <trkpt lat="44.79005" lon="6.97859">
        <ele>2512</ele>
        <time>2021-07-08T09:28:23Z</time>
      </trkpt>
      <trkpt lat="44.7901" lon="6.97823">
        <ele>2513.9</ele>
        <time>2021-07-08T09:28:53Z</time>
      </trkpt>
      <trkpt lat="44.79013" lon="6.97793">
        <ele>2515.5</ele>
        <time>2021-07-08T09:29:23Z</time>
      </trkpt>
      <trkpt lat="44.79027" lon="6.97778">
        <ele>2524</ele>
        <time>2021-07-08T09:29:54Z</time>
      </trkpt>
      <trkpt lat="44.79029" lon="6.97761">
        <ele>2525.6</ele>
        <time>2021-07-08T09:30:25Z</time>
      </trkpt>
      <trkpt lat="44.79035" lon="6.97748">
        <ele>2526.5</ele>
        <time>2021-07-08T09:30:56Z</time>
      </trkpt>
      <trkpt lat="44.79045" lon="6.97741">
        <ele>2532.3</ele>
        <time>2021-07-08T09:31:26Z</time>
      </trkpt>
      <trkpt lat="44.79041" lon="6.9773">
        <ele>2532.2</ele>
        <time>2021-07-08T09:32:05Z</time>
      </trkpt>
      <trkpt lat="44.79036" lon="6.97697">
        <ele>2526.7</ele>
        <time>2021-07-08T09:32:36Z</time>
      </trkpt>
      <trkpt lat="44.79031" lon="6.97672">
        <ele>2519.7</ele>
        <time>2021-07-08T09:33:07Z</time>
      </trkpt>
      <trkpt lat="44.79029" lon="6.97641">
        <ele>2512.5</ele>
        <time>2021-07-08T09:33:37Z</time>
      </trkpt>
      <trkpt lat="44.79025" lon="6.97598">
        <ele>2508.7</ele>
        <time>2021-07-08T09:34:08Z</time>
      </trkpt>
      <trkpt lat="44.79022" lon="6.97554">
        <ele>2511.2</ele>
        <time>2021-07-08T09:34:39Z</time>
      </trkpt>
      <trkpt lat="44.79017" lon="6.97519">
        <ele>2511.2</ele>
        <time>2021-07-08T09:35:10Z</time>
      </trkpt>
      <trkpt lat="44.79013" lon="6.97483">
        <ele>2510.5</ele>
        <time>2021-07-08T09:35:40Z</time>
      </trkpt>
      <trkpt lat="44.79007" lon="6.97444">
        <ele>2508.7</ele>
        <time>2021-07-08T09:36:10Z</time>
      </trkpt>
      <trkpt lat="44.78997" lon="6.97417">
        <ele>2512.9</ele>
        <time>2021-07-08T09:36:41Z</time>
      </trkpt>
      <trkpt lat="44.79" lon="6.9739">
        <ele>2515.4</ele>
        <time>2021-07-08T09:37:11Z</time>
      </trkpt>
      <trkpt lat="44.79001" lon="6.97365">
        <ele>2521.6</ele>
        <time>2021-07-08T09:37:42Z</time>
      </trkpt>
      <trkpt lat="44.79" lon="6.97335">
        <ele>2526.3</ele>
        <time>2021-07-08T09:38:13Z</time>
      </trkpt>
      <trkpt lat="44.78996" lon="6.9731">
        <ele>2529.6</ele>
        <time>2021-07-08T09:38:44Z</time>
      </trkpt>
      <trkpt lat="44.78999" lon="6.9729">
        <ele>2531.7</ele>
        <time>2021-07-08T09:39:14Z</time>
      </trkpt>
      <trkpt lat="44.79002" lon="6.97274">
        <ele>2537.2</ele>
        <time>2021-07-08T09:39:44Z</time>
      </trkpt>
      <trkpt lat="44.79008" lon="6.97247">
        <ele>2544.4</ele>
        <time>2021-07-08T09:40:15Z</time>
      </trkpt>
      <trkpt lat="44.7902" lon="6.97219">
        <ele>2545.2</ele>
        <time>2021-07-08T09:40:46Z</time>
      </trkpt>
      <trkpt lat="44.79025" lon="6.97201">
        <ele>2544.3</ele>
        <time>2021-07-08T09:41:16Z</time>
      </trkpt>
      <trkpt lat="44.7903" lon="6.9717">
        <ele>2547</ele>
        <time>2021-07-08T09:41:47Z</time>
      </trkpt>
      <trkpt lat="44.79036" lon="6.97147">
        <ele>2544.6</ele>
        <time>2021-07-08T09:42:23Z</time>
      </trkpt>
      <trkpt lat="44.79041" lon="6.97091">
        <ele>2544.2</ele>
        <time>2021-07-08T09:42:53Z</time>
      </trkpt>
      <trkpt lat="44.79057" lon="6.97055">
        <ele>2540.1</ele>
        <time>2021-07-08T09:43:24Z</time>
      </trkpt>
      <trkpt lat="44.79077" lon="6.97019">
        <ele>2535.6</ele>
        <time>2021-07-08T09:43:55Z</time>
      </trkpt>
      <trkpt lat="44.79085" lon="6.96999">
        <ele>2536.5</ele>
        <time>2021-07-08T09:44:25Z</time>
      </trkpt>
      <trkpt lat="44.79105" lon="6.96969">
        <ele>2539.6</ele>
        <time>2021-07-08T09:44:56Z</time>
      </trkpt>
      <trkpt lat="44.79116" lon="6.96935">
        <ele>2535.7</ele>
        <time>2021-07-08T09:45:27Z</time>
      </trkpt>
      <trkpt lat="44.79125" lon="6.96892">
        <ele>2531.4</ele>
        <time>2021-07-08T09:45:58Z</time>
      </trkpt>
      <trkpt lat="44.79137" lon="6.96857">
        <ele>2531.8</ele>
        <time>2021-07-08T09:46:29Z</time>
      </trkpt>
      <trkpt lat="44.79154" lon="6.96832">
        <ele>2535</ele>
        <time>2021-07-08T09:47:00Z</time>
      </trkpt>
      <trkpt lat="44.79169" lon="6.96819">
        <ele>2540</ele>
        <time>2021-07-08T09:47:31Z</time>
      </trkpt>
      <trkpt lat="44.79181" lon="6.96802">
        <ele>2538.4</ele>
        <time>2021-07-08T09:48:02Z</time>
      </trkpt>
      <trkpt lat="44.79188" lon="6.96794">
        <ele>2534.2</ele>
        <time>2021-07-08T09:49:14Z</time>
      </trkpt>
      <trkpt lat="44.792" lon="6.96765">
        <ele>2531.2</ele>
        <time>2021-07-08T09:49:44Z</time>
      </trkpt>
      <trkpt lat="44.79217" lon="6.96746">
        <ele>2524.4</ele>
        <time>2021-07-08T09:50:14Z</time>
      </trkpt>
      <trkpt lat="44.79222" lon="6.96713">
        <ele>2517.9</ele>
        <time>2021-07-08T09:50:45Z</time>
      </trkpt>
      <trkpt lat="44.79227" lon="6.96689">
        <ele>2510.2</ele>
        <time>2021-07-08T09:51:15Z</time>
      </trkpt>
      <trkpt lat="44.79238" lon="6.96654">
        <ele>2501.4</ele>
        <time>2021-07-08T09:51:45Z</time>
      </trkpt>
      <trkpt lat="44.79259" lon="6.9663">
        <ele>2490.2</ele>
        <time>2021-07-08T09:52:16Z</time>
      </trkpt>
      <trkpt lat="44.79283" lon="6.96609">
        <ele>2483.6</ele>
        <time>2021-07-08T09:52:47Z</time>
      </trkpt>
      <trkpt lat="44.7929" lon="6.96579">
        <ele>2476.6</ele>
        <time>2021-07-08T09:53:18Z</time>
      </trkpt>
      <trkpt lat="44.79311" lon="6.96552">
        <ele>2473.3</ele>
        <time>2021-07-08T09:53:49Z</time>
      </trkpt>
      <trkpt lat="44.79329" lon="6.96513">
        <ele>2470.6</ele>
        <time>2021-07-08T09:54:19Z</time>
      </trkpt>
      <trkpt lat="44.79341" lon="6.96479">
        <ele>2470.4</ele>
        <time>2021-07-08T09:54:50Z</time>
      </trkpt>
      <trkpt lat="44.79352" lon="6.96449">
        <ele>2465.3</ele>
        <time>2021-07-08T09:55:21Z</time>
      </trkpt>
      <trkpt lat="44.79357" lon="6.96421">
        <ele>2460</ele>
        <time>2021-07-08T09:55:52Z</time>
      </trkpt>
      <trkpt lat="44.79372" lon="6.96392">
        <ele>2454.5</ele>
        <time>2021-07-08T09:56:22Z</time>
      </trkpt>
      <trkpt lat="44.79388" lon="6.96365">
        <ele>2446.4</ele>
        <time>2021-07-08T09:56:52Z</time>
      </trkpt>
      <trkpt lat="44.79394" lon="6.96351">
        <ele>2442.4</ele>
        <time>2021-07-08T09:57:22Z</time>
      </trkpt>
      <trkpt lat="44.79407" lon="6.96333">
        <ele>2440.8</ele>
        <time>2021-07-08T09:57:53Z</time>
      </trkpt>
      <trkpt lat="44.7942" lon="6.96315">
        <ele>2439</ele>
        <time>2021-07-08T09:58:24Z</time>
      </trkpt>
      <trkpt lat="44.79434" lon="6.96308">
        <ele>2433.8</ele>
        <time>2021-07-08T09:58:55Z</time>
      </trkpt>
      <trkpt lat="44.79439" lon="6.96296">
        <ele>2428.3</ele>
        <time>2021-07-08T09:59:26Z</time>
      </trkpt>
      <trkpt lat="44.79452" lon="6.9628">
        <ele>2419</ele>
        <time>2021-07-08T09:59:56Z</time>
      </trkpt>
      <trkpt lat="44.79458" lon="6.96258">
        <ele>2409.6</ele>
        <time>2021-07-08T10:00:27Z</time>
      </trkpt>
      <trkpt lat="44.79476" lon="6.9624">
        <ele>2404.7</ele>
        <time>2021-07-08T10:00:58Z</time>
      </trkpt>
      <trkpt lat="44.79484" lon="6.96219">
        <ele>2396.8</ele>
        <time>2021-07-08T10:01:29Z</time>
      </trkpt>
      <trkpt lat="44.79483" lon="6.96206">
        <ele>2387.6</ele>
        <time>2021-07-08T10:02:03Z</time>
      </trkpt>
      <trkpt lat="44.79489" lon="6.96191">
        <ele>2383.5</ele>
        <time>2021-07-08T10:02:33Z</time>
      </trkpt>
      <trkpt lat="44.79498" lon="6.96166">
        <ele>2375.5</ele>
        <time>2021-07-08T10:03:04Z</time>
      </trkpt>
      <trkpt lat="44.79506" lon="6.96159">
        <ele>2369</ele>
        <time>2021-07-08T10:03:46Z</time>
      </trkpt>
      <trkpt lat="44.7952" lon="6.9614">
        <ele>2363.5</ele>
        <time>2021-07-08T10:04:17Z</time>
      </trkpt>
      <trkpt lat="44.79529" lon="6.96126">
        <ele>2357.5</ele>
        <time>2021-07-08T10:04:47Z</time>
      </trkpt>
      <trkpt lat="44.79544" lon="6.9611">
        <ele>2352.7</ele>
        <time>2021-07-08T10:05:17Z</time>
      </trkpt>
      <trkpt lat="44.79559" lon="6.96085">
        <ele>2347.5</ele>
        <time>2021-07-08T10:05:48Z</time>
      </trkpt>
      <trkpt lat="44.79577" lon="6.96061">
        <ele>2339.8</ele>
        <time>2021-07-08T10:06:18Z</time>
      </trkpt>
      <trkpt lat="44.79594" lon="6.96033">
        <ele>2331</ele>
        <time>2021-07-08T10:06:49Z</time>
      </trkpt>
      <trkpt lat="44.79609" lon="6.96004">
        <ele>2324.3</ele>
        <time>2021-07-08T10:07:20Z</time>
      </trkpt>
      <trkpt lat="44.79618" lon="6.96001">
        <ele>2319</ele>
        <time>2021-07-08T10:10:37Z</time>
      </trkpt>
      <trkpt lat="44.79621" lon="6.96013">
        <ele>2318</ele>
        <time>2021-07-08T10:27:34Z</time>
      </trkpt>
      <trkpt lat="44.79637" lon="6.96048">
        <ele>2310.8</ele>
        <time>2021-07-08T10:28:04Z</time>
      </trkpt>
      <trkpt lat="44.79652" lon="6.96085">
        <ele>2302.1</ele>
        <time>2021-07-08T10:28:35Z</time>
      </trkpt>
      <trkpt lat="44.79659" lon="6.96123">
        <ele>2296.9</ele>
        <time>2021-07-08T10:29:06Z</time>
      </trkpt>
      <trkpt lat="44.79667" lon="6.96118">
        <ele>2302.5</ele>
        <time>2021-07-08T10:30:57Z</time>
      </trkpt>
      <trkpt lat="44.79658" lon="6.96115">
        <ele>2303.2</ele>
        <time>2021-07-08T10:31:37Z</time>
      </trkpt>
      <trkpt lat="44.79664" lon="6.96125">
        <ele>2300.2</ele>
        <time>2021-07-08T10:32:21Z</time>
      </trkpt>
      <trkpt lat="44.79671" lon="6.96174">
        <ele>2294.8</ele>
        <time>2021-07-08T10:32:51Z</time>
      </trkpt>
      <trkpt lat="44.7966" lon="6.96215">
        <ele>2285.2</ele>
        <time>2021-07-08T10:33:22Z</time>
      </trkpt>
      <trkpt lat="44.79655" lon="6.96257">
        <ele>2274</ele>
        <time>2021-07-08T10:33:53Z</time>
      </trkpt>
      <trkpt lat="44.79639" lon="6.96297">
        <ele>2266.4</ele>
        <time>2021-07-08T10:34:24Z</time>
      </trkpt>
      <trkpt lat="44.79625" lon="6.96341">
        <ele>2257.5</ele>
        <time>2021-07-08T10:34:55Z</time>
      </trkpt>
      <trkpt lat="44.79605" lon="6.9638">
        <ele>2252.4</ele>
        <time>2021-07-08T10:35:25Z</time>
      </trkpt>
      <trkpt lat="44.79601" lon="6.96432">
        <ele>2243.6</ele>
        <time>2021-07-08T10:35:56Z</time>
      </trkpt>
      <trkpt lat="44.79614" lon="6.96443">
        <ele>2241.1</ele>
        <time>2021-07-08T10:36:26Z</time>
      </trkpt>
      <trkpt lat="44.79631" lon="6.96425">
        <ele>2231.6</ele>
        <time>2021-07-08T10:36:57Z</time>
      </trkpt>
      <trkpt lat="44.79656" lon="6.9642">
        <ele>2227.5</ele>
        <time>2021-07-08T10:37:28Z</time>
      </trkpt>
      <trkpt lat="44.79685" lon="6.96463">
        <ele>2215.9</ele>
        <time>2021-07-08T10:37:58Z</time>
      </trkpt>
      <trkpt lat="44.79707" lon="6.96511">
        <ele>2212.8</ele>
        <time>2021-07-08T10:38:29Z</time>
      </trkpt>
      <trkpt lat="44.79741" lon="6.96542">
        <ele>2207.6</ele>
        <time>2021-07-08T10:39:00Z</time>
      </trkpt>
      <trkpt lat="44.79769" lon="6.96564">
        <ele>2208.4</ele>
        <time>2021-07-08T10:39:31Z</time>
      </trkpt>
      <trkpt lat="44.798" lon="6.96574">
        <ele>2204.8</ele>
        <time>2021-07-08T10:40:01Z</time>
      </trkpt>
      <trkpt lat="44.79822" lon="6.9658">
        <ele>2204.5</ele>
        <time>2021-07-08T10:40:31Z</time>
      </trkpt>
      <trkpt lat="44.79849" lon="6.96596">
        <ele>2199.8</ele>
        <time>2021-07-08T10:41:01Z</time>
      </trkpt>
      <trkpt lat="44.79881" lon="6.96602">
        <ele>2190.3</ele>
        <time>2021-07-08T10:41:31Z</time>
      </trkpt>
      <trkpt lat="44.79891" lon="6.96621">
        <ele>2184.6</ele>
        <time>2021-07-08T10:42:02Z</time>
      </trkpt>
      <trkpt lat="44.79899" lon="6.96657">
        <ele>2176.2</ele>
        <time>2021-07-08T10:42:32Z</time>
      </trkpt>
      <trkpt lat="44.79923" lon="6.96665">
        <ele>2164.6</ele>
        <time>2021-07-08T10:43:03Z</time>
      </trkpt>
      <trkpt lat="44.7995" lon="6.96682">
        <ele>2156.3</ele>
        <time>2021-07-08T10:43:33Z</time>
      </trkpt>
      <trkpt lat="44.79981" lon="6.96679">
        <ele>2149.3</ele>
        <time>2021-07-08T10:44:03Z</time>
      </trkpt>
      <trkpt lat="44.79991" lon="6.96681">
        <ele>2151.1</ele>
        <time>2021-07-08T10:48:10Z</time>
      </trkpt>
      <trkpt lat="44.80025" lon="6.96689">
        <ele>2149</ele>
        <time>2021-07-08T10:48:41Z</time>
      </trkpt>
      <trkpt lat="44.80059" lon="6.96699">
        <ele>2144.9</ele>
        <time>2021-07-08T10:49:11Z</time>
      </trkpt>
      <trkpt lat="44.80095" lon="6.96708">
        <ele>2138.7</ele>
        <time>2021-07-08T10:49:41Z</time>
      </trkpt>
      <trkpt lat="44.80108" lon="6.96671">
        <ele>2131.4</ele>
        <time>2021-07-08T10:50:13Z</time>
      </trkpt>
      <trkpt lat="44.80127" lon="6.96678">
        <ele>2122</ele>
        <time>2021-07-08T10:50:43Z</time>
      </trkpt>
      <trkpt lat="44.80138" lon="6.96678">
        <ele>2116.4</ele>
        <time>2021-07-08T10:51:13Z</time>
      </trkpt>
      <trkpt lat="44.80148" lon="6.96714">
        <ele>2113.5</ele>
        <time>2021-07-08T10:51:44Z</time>
      </trkpt>
      <trkpt lat="44.80166" lon="6.96738">
        <ele>2111.2</ele>
        <time>2021-07-08T10:52:14Z</time>
      </trkpt>
      <trkpt lat="44.8019" lon="6.96717">
        <ele>2103.8</ele>
        <time>2021-07-08T10:52:45Z</time>
      </trkpt>
      <trkpt lat="44.80217" lon="6.96685">
        <ele>2095.3</ele>
        <time>2021-07-08T10:53:16Z</time>
      </trkpt>
      <trkpt lat="44.8025" lon="6.96679">
        <ele>2087.7</ele>
        <time>2021-07-08T10:53:47Z</time>
      </trkpt>
      <trkpt lat="44.80245" lon="6.96725">
        <ele>2082.9</ele>
        <time>2021-07-08T10:54:17Z</time>
      </trkpt>
      <trkpt lat="44.80252" lon="6.96739">
        <ele>2076.6</ele>
        <time>2021-07-08T10:54:47Z</time>
      </trkpt>
      <trkpt lat="44.8029" lon="6.96738">
        <ele>2069.3</ele>
        <time>2021-07-08T10:55:18Z</time>
      </trkpt>
      <trkpt lat="44.80321" lon="6.96748">
        <ele>2059.6</ele>
        <time>2021-07-08T10:55:49Z</time>
      </trkpt>
      <trkpt lat="44.80346" lon="6.96755">
        <ele>2052.1</ele>
        <time>2021-07-08T10:56:19Z</time>
      </trkpt>
      <trkpt lat="44.80376" lon="6.9677">
        <ele>2046.7</ele>
        <time>2021-07-08T10:56:50Z</time>
      </trkpt>
      <trkpt lat="44.80392" lon="6.96775">
        <ele>2041.4</ele>
        <time>2021-07-08T10:57:20Z</time>
      </trkpt>
      <trkpt lat="44.80401" lon="6.96781">
        <ele>2039.6</ele>
        <time>2021-07-08T10:57:59Z</time>
      </trkpt>
      <trkpt lat="44.80414" lon="6.96804">
        <ele>2037.1</ele>
        <time>2021-07-08T10:58:30Z</time>
      </trkpt>
      <trkpt lat="44.80437" lon="6.96807">
        <ele>2029.9</ele>
        <time>2021-07-08T10:59:00Z</time>
      </trkpt>
      <trkpt lat="44.80458" lon="6.96802">
        <ele>2024.2</ele>
        <time>2021-07-08T10:59:30Z</time>
      </trkpt>
      <trkpt lat="44.80481" lon="6.96804">
        <ele>2018.6</ele>
        <time>2021-07-08T11:00:01Z</time>
      </trkpt>
      <trkpt lat="44.80504" lon="6.96801">
        <ele>2012</ele>
        <time>2021-07-08T11:00:31Z</time>
      </trkpt>
      <trkpt lat="44.80529" lon="6.96795">
        <ele>2004.8</ele>
        <time>2021-07-08T11:01:02Z</time>
      </trkpt>
      <trkpt lat="44.80544" lon="6.9679">
        <ele>2000.6</ele>
        <time>2021-07-08T11:01:32Z</time>
      </trkpt>
      <trkpt lat="44.80549" lon="6.96778">
        <ele>1999.9</ele>
        <time>2021-07-08T11:02:28Z</time>
      </trkpt>
      <trkpt lat="44.80572" lon="6.96748">
        <ele>1994.9</ele>
        <time>2021-07-08T11:02:58Z</time>
      </trkpt>
      <trkpt lat="44.8059" lon="6.96709">
        <ele>1989</ele>
        <time>2021-07-08T11:03:29Z</time>
      </trkpt>
      <trkpt lat="44.80589" lon="6.96696">
        <ele>1984.1</ele>
        <time>2021-07-08T11:04:20Z</time>
      </trkpt>
      <trkpt lat="44.80593" lon="6.96661">
        <ele>1981.6</ele>
        <time>2021-07-08T11:04:50Z</time>
      </trkpt>
      <trkpt lat="44.8059" lon="6.96635">
        <ele>1976</ele>
        <time>2021-07-08T11:05:20Z</time>
      </trkpt>
      <trkpt lat="44.8057" lon="6.96606">
        <ele>1971.9</ele>
        <time>2021-07-08T11:05:51Z</time>
      </trkpt>
      <trkpt lat="44.80584" lon="6.96587">
        <ele>1970.2</ele>
        <time>2021-07-08T11:06:22Z</time>
      </trkpt>
      <trkpt lat="44.80618" lon="6.96579">
        <ele>1969.1</ele>
        <time>2021-07-08T11:06:53Z</time>
      </trkpt>
      <trkpt lat="44.80629" lon="6.96551">
        <ele>1965.5</ele>
        <time>2021-07-08T11:07:23Z</time>
      </trkpt>
      <trkpt lat="44.80633" lon="6.96516">
        <ele>1962.7</ele>
        <time>2021-07-08T11:07:54Z</time>
      </trkpt>
      <trkpt lat="44.80618" lon="6.96482">
        <ele>1960.1</ele>
        <time>2021-07-08T11:08:26Z</time>
      </trkpt>
      <trkpt lat="44.8061" lon="6.96445">
        <ele>1956.6</ele>
        <time>2021-07-08T11:08:56Z</time>
      </trkpt>
      <trkpt lat="44.80601" lon="6.96413">
        <ele>1954.9</ele>
        <time>2021-07-08T11:09:26Z</time>
      </trkpt>
      <trkpt lat="44.80609" lon="6.9638">
        <ele>1952.6</ele>
        <time>2021-07-08T11:09:56Z</time>
      </trkpt>
      <trkpt lat="44.80623" lon="6.96348">
        <ele>1951</ele>
        <time>2021-07-08T11:10:27Z</time>
      </trkpt>
      <trkpt lat="44.8064" lon="6.96316">
        <ele>1949.9</ele>
        <time>2021-07-08T11:10:58Z</time>
      </trkpt>
      <trkpt lat="44.80653" lon="6.9629">
        <ele>1949.7</ele>
        <time>2021-07-08T11:11:28Z</time>
      </trkpt>
      <trkpt lat="44.80674" lon="6.96264">
        <ele>1949.6</ele>
        <time>2021-07-08T11:11:59Z</time>
      </trkpt>
      <trkpt lat="44.80683" lon="6.96231">
        <ele>1950.5</ele>
        <time>2021-07-08T11:12:30Z</time>
      </trkpt>
      <trkpt lat="44.80683" lon="6.96191">
        <ele>1950.8</ele>
        <time>2021-07-08T11:13:00Z</time>
      </trkpt>
      <trkpt lat="44.80675" lon="6.96156">
        <ele>1952.1</ele>
        <time>2021-07-08T11:13:31Z</time>
      </trkpt>
      <trkpt lat="44.80668" lon="6.96115">
        <ele>1952.2</ele>
        <time>2021-07-08T11:14:02Z</time>
      </trkpt>
      <trkpt lat="44.80682" lon="6.96082">
        <ele>1949.7</ele>
        <time>2021-07-08T11:14:32Z</time>
      </trkpt>
      <trkpt lat="44.80705" lon="6.96062">
        <ele>1949.1</ele>
        <time>2021-07-08T11:15:02Z</time>
      </trkpt>
      <trkpt lat="44.8072" lon="6.9603">
        <ele>1948.6</ele>
        <time>2021-07-08T11:15:32Z</time>
      </trkpt>
      <trkpt lat="44.80738" lon="6.96">
        <ele>1943.9</ele>
        <time>2021-07-08T11:16:03Z</time>
      </trkpt>
      <trkpt lat="44.80753" lon="6.95969">
        <ele>1938.4</ele>
        <time>2021-07-08T11:16:34Z</time>
      </trkpt>
      <trkpt lat="44.80763" lon="6.95933">
        <ele>1935.7</ele>
        <time>2021-07-08T11:17:04Z</time>
      </trkpt>
      <trkpt lat="44.80773" lon="6.95895">
        <ele>1933.4</ele>
        <time>2021-07-08T11:17:34Z</time>
      </trkpt>
      <trkpt lat="44.80783" lon="6.95863">
        <ele>1930</ele>
        <time>2021-07-08T11:18:05Z</time>
      </trkpt>
      <trkpt lat="44.80786" lon="6.95823">
        <ele>1927.1</ele>
        <time>2021-07-08T11:18:36Z</time>
      </trkpt>
      <trkpt lat="44.80793" lon="6.95795">
        <ele>1924.9</ele>
        <time>2021-07-08T11:19:06Z</time>
      </trkpt>
      <trkpt lat="44.80797" lon="6.95783">
        <ele>1924.3</ele>
        <time>2021-07-08T11:19:37Z</time>
      </trkpt>
      <trkpt lat="44.80788" lon="6.95758">
        <ele>1924</ele>
        <time>2021-07-08T11:20:07Z</time>
      </trkpt>
      <trkpt lat="44.80783" lon="6.95732">
        <ele>1923.8</ele>
        <time>2021-07-08T11:20:38Z</time>
      </trkpt>
      <trkpt lat="44.80764" lon="6.95712">
        <ele>1918.8</ele>
        <time>2021-07-08T11:21:09Z</time>
      </trkpt>
      <trkpt lat="44.8077" lon="6.95692">
        <ele>1915.3</ele>
        <time>2021-07-08T11:21:40Z</time>
      </trkpt>
      <trkpt lat="44.80788" lon="6.95663">
        <ele>1913.8</ele>
        <time>2021-07-08T11:22:10Z</time>
      </trkpt>
      <trkpt lat="44.80802" lon="6.95635">
        <ele>1911.4</ele>
        <time>2021-07-08T11:22:41Z</time>
      </trkpt>
      <trkpt lat="44.80819" lon="6.9561">
        <ele>1911.2</ele>
        <time>2021-07-08T11:23:12Z</time>
      </trkpt>
      <trkpt lat="44.80843" lon="6.95602">
        <ele>1914.1</ele>
        <time>2021-07-08T11:23:42Z</time>
      </trkpt>
      <trkpt lat="44.80847" lon="6.95578">
        <ele>1912.4</ele>
        <time>2021-07-08T11:24:13Z</time>
      </trkpt>
      <trkpt lat="44.80861" lon="6.95551">
        <ele>1915.6</ele>
        <time>2021-07-08T11:24:43Z</time>
      </trkpt>
      <trkpt lat="44.80868" lon="6.95517">
        <ele>1911.5</ele>
        <time>2021-07-08T11:25:14Z</time>
      </trkpt>
      <trkpt lat="44.80884" lon="6.95485">
        <ele>1912</ele>
        <time>2021-07-08T11:25:45Z</time>
      </trkpt>
      <trkpt lat="44.80897" lon="6.95453">
        <ele>1912.3</ele>
        <time>2021-07-08T11:26:15Z</time>
      </trkpt>
      <trkpt lat="44.80904" lon="6.95418">
        <ele>1909.5</ele>
        <time>2021-07-08T11:26:45Z</time>
      </trkpt>
      <trkpt lat="44.80911" lon="6.95389">
        <ele>1910.3</ele>
        <time>2021-07-08T11:27:17Z</time>
      </trkpt>
      <trkpt lat="44.80927" lon="6.95359">
        <ele>1909.4</ele>
        <time>2021-07-08T11:27:47Z</time>
      </trkpt>
      <trkpt lat="44.80938" lon="6.95334">
        <ele>1908.2</ele>
        <time>2021-07-08T11:28:18Z</time>
      </trkpt>
      <trkpt lat="44.80933" lon="6.95292">
        <ele>1905.7</ele>
        <time>2021-07-08T11:28:49Z</time>
      </trkpt>
      <trkpt lat="44.80933" lon="6.9526">
        <ele>1903.2</ele>
        <time>2021-07-08T11:29:20Z</time>
      </trkpt>
      <trkpt lat="44.80935" lon="6.9523">
        <ele>1903.3</ele>
        <time>2021-07-08T11:29:50Z</time>
      </trkpt>
      <trkpt lat="44.80931" lon="6.95219">
        <ele>1904.1</ele>
        <time>2021-07-08T11:30:22Z</time>
      </trkpt>
      <trkpt lat="44.80933" lon="6.95205">
        <ele>1903.6</ele>
        <time>2021-07-08T11:34:15Z</time>
      </trkpt>
      <trkpt lat="44.80962" lon="6.95166">
        <ele>1906.4</ele>
        <time>2021-07-08T11:34:46Z</time>
      </trkpt>
      <trkpt lat="44.80981" lon="6.95136">
        <ele>1900</ele>
        <time>2021-07-08T11:35:16Z</time>
      </trkpt>
      <trkpt lat="44.80999" lon="6.951">
        <ele>1895.8</ele>
        <time>2021-07-08T11:35:47Z</time>
      </trkpt>
      <trkpt lat="44.81024" lon="6.95075">
        <ele>1893.5</ele>
        <time>2021-07-08T11:36:18Z</time>
      </trkpt>
      <trkpt lat="44.8104" lon="6.9504">
        <ele>1896.7</ele>
        <time>2021-07-08T11:36:49Z</time>
      </trkpt>
      <trkpt lat="44.81051" lon="6.94996">
        <ele>1900</ele>
        <time>2021-07-08T11:37:20Z</time>
      </trkpt>
      <trkpt lat="44.81064" lon="6.9496">
        <ele>1901.2</ele>
        <time>2021-07-08T11:37:51Z</time>
      </trkpt>
      <trkpt lat="44.81078" lon="6.9492">
        <ele>1897.4</ele>
        <time>2021-07-08T11:38:21Z</time>
      </trkpt>
      <trkpt lat="44.81096" lon="6.94886">
        <ele>1895.7</ele>
        <time>2021-07-08T11:38:52Z</time>
      </trkpt>
      <trkpt lat="44.81113" lon="6.94855">
        <ele>1895.8</ele>
        <time>2021-07-08T11:39:22Z</time>
      </trkpt>
      <trkpt lat="44.81122" lon="6.94813">
        <ele>1898.1</ele>
        <time>2021-07-08T11:39:54Z</time>
      </trkpt>
      <trkpt lat="44.81137" lon="6.9477">
        <ele>1899.8</ele>
        <time>2021-07-08T11:40:24Z</time>
      </trkpt>
      <trkpt lat="44.81149" lon="6.94737">
        <ele>1901.1</ele>
        <time>2021-07-08T11:40:54Z</time>
      </trkpt>
      <trkpt lat="44.81154" lon="6.94693">
        <ele>1901.9</ele>
        <time>2021-07-08T11:41:25Z</time>
      </trkpt>
      <trkpt lat="44.81152" lon="6.94647">
        <ele>1893.8</ele>
        <time>2021-07-08T11:41:56Z</time>
      </trkpt>
      <trkpt lat="44.81139" lon="6.94608">
        <ele>1885.8</ele>
        <time>2021-07-08T11:42:27Z</time>
      </trkpt>
      <trkpt lat="44.81118" lon="6.94572">
        <ele>1882.1</ele>
        <time>2021-07-08T11:42:58Z</time>
      </trkpt>
      <trkpt lat="44.81103" lon="6.94539">
        <ele>1882.8</ele>
        <time>2021-07-08T11:43:29Z</time>
      </trkpt>
      <trkpt lat="44.811" lon="6.94509">
        <ele>1886.9</ele>
        <time>2021-07-08T11:43:59Z</time>
      </trkpt>
      <trkpt lat="44.81097" lon="6.94481">
        <ele>1888.3</ele>
        <time>2021-07-08T11:44:30Z</time>
      </trkpt>
      <trkpt lat="44.81095" lon="6.94468">
        <ele>1890.2</ele>
        <time>2021-07-08T11:45:51Z</time>
      </trkpt>
      <trkpt lat="44.81094" lon="6.94413">
        <ele>1890.7</ele>
        <time>2021-07-08T11:46:22Z</time>
      </trkpt>
      <trkpt lat="44.81093" lon="6.94368">
        <ele>1899.7</ele>
        <time>2021-07-08T11:46:53Z</time>
      </trkpt>
      <trkpt lat="44.81076" lon="6.94318">
        <ele>1889.9</ele>
        <time>2021-07-08T11:47:24Z</time>
      </trkpt>
      <trkpt lat="44.81058" lon="6.9427">
        <ele>1887.1</ele>
        <time>2021-07-08T11:47:55Z</time>
      </trkpt>
      <trkpt lat="44.81028" lon="6.9425">
        <ele>1884.7</ele>
        <time>2021-07-08T11:48:26Z</time>
      </trkpt>
      <trkpt lat="44.80997" lon="6.94237">
        <ele>1884.5</ele>
        <time>2021-07-08T11:48:56Z</time>
      </trkpt>
      <trkpt lat="44.80964" lon="6.94219">
        <ele>1882.3</ele>
        <time>2021-07-08T11:49:28Z</time>
      </trkpt>
      <trkpt lat="44.80944" lon="6.94185">
        <ele>1878.8</ele>
        <time>2021-07-08T11:49:58Z</time>
      </trkpt>
      <trkpt lat="44.80919" lon="6.94161">
        <ele>1871.5</ele>
        <time>2021-07-08T11:50:29Z</time>
      </trkpt>
      <trkpt lat="44.80894" lon="6.94135">
        <ele>1865.1</ele>
        <time>2021-07-08T11:51:00Z</time>
      </trkpt>
      <trkpt lat="44.80877" lon="6.94105">
        <ele>1857</ele>
        <time>2021-07-08T11:51:30Z</time>
      </trkpt>
      <trkpt lat="44.80851" lon="6.94088">
        <ele>1850.2</ele>
        <time>2021-07-08T11:52:00Z</time>
      </trkpt>
      <trkpt lat="44.80837" lon="6.94056">
        <ele>1841.1</ele>
        <time>2021-07-08T11:52:31Z</time>
      </trkpt>
      <trkpt lat="44.8082" lon="6.94021">
        <ele>1834.3</ele>
        <time>2021-07-08T11:53:02Z</time>
      </trkpt>
      <trkpt lat="44.80803" lon="6.93994">
        <ele>1828.4</ele>
        <time>2021-07-08T11:53:32Z</time>
      </trkpt>
      <trkpt lat="44.80801" lon="6.93971">
        <ele>1825.1</ele>
        <time>2021-07-08T11:54:02Z</time>
      </trkpt>
      <trkpt lat="44.80796" lon="6.93942">
        <ele>1822.2</ele>
        <time>2021-07-08T11:54:33Z</time>
      </trkpt>
      <trkpt lat="44.80788" lon="6.93906">
        <ele>1819</ele>
        <time>2021-07-08T11:55:04Z</time>
      </trkpt>
      <trkpt lat="44.80766" lon="6.93887">
        <ele>1813</ele>
        <time>2021-07-08T11:55:35Z</time>
      </trkpt>
      <trkpt lat="44.80755" lon="6.93863">
        <ele>1804.5</ele>
        <time>2021-07-08T11:56:05Z</time>
      </trkpt>
      <trkpt lat="44.8077" lon="6.9385">
        <ele>1799</ele>
        <time>2021-07-08T11:56:36Z</time>
      </trkpt>
      <trkpt lat="44.8078" lon="6.93825">
        <ele>1793</ele>
        <time>2021-07-08T11:57:08Z</time>
      </trkpt>
      <trkpt lat="44.80764" lon="6.93808">
        <ele>1790.8</ele>
        <time>2021-07-08T11:57:38Z</time>
      </trkpt>
      <trkpt lat="44.80743" lon="6.93797">
        <ele>1786.5</ele>
        <time>2021-07-08T11:58:09Z</time>
      </trkpt>
      <trkpt lat="44.80729" lon="6.93805">
        <ele>1785.1</ele>
        <time>2021-07-08T11:58:41Z</time>
      </trkpt>
      <trkpt lat="44.80715" lon="6.93775">
        <ele>1779.6</ele>
        <time>2021-07-08T11:59:11Z</time>
      </trkpt>
      <trkpt lat="44.80731" lon="6.9375">
        <ele>1773.2</ele>
        <time>2021-07-08T11:59:42Z</time>
      </trkpt>
      <trkpt lat="44.8076" lon="6.93749">
        <ele>1767.1</ele>
        <time>2021-07-08T12:00:12Z</time>
      </trkpt>
      <trkpt lat="44.80782" lon="6.93764">
        <ele>1758.6</ele>
        <time>2021-07-08T12:00:44Z</time>
      </trkpt>
      <trkpt lat="44.8081" lon="6.93758">
        <ele>1750.3</ele>
        <time>2021-07-08T12:01:14Z</time>
      </trkpt>
      <trkpt lat="44.80834" lon="6.93743">
        <ele>1743.2</ele>
        <time>2021-07-08T12:01:44Z</time>
      </trkpt>
      <trkpt lat="44.80825" lon="6.93739">
        <ele>1738.7</ele>
        <time>2021-07-08T12:02:25Z</time>
      </trkpt>
      <trkpt lat="44.80787" lon="6.93719">
        <ele>1736.4</ele>
        <time>2021-07-08T12:02:55Z</time>
      </trkpt>
      <trkpt lat="44.80746" lon="6.93702">
        <ele>1731.6</ele>
        <time>2021-07-08T12:03:26Z</time>
      </trkpt>
      <trkpt lat="44.80714" lon="6.93674">
        <ele>1726.7</ele>
        <time>2021-07-08T12:03:57Z</time>
      </trkpt>
      <trkpt lat="44.80687" lon="6.93651">
        <ele>1722.3</ele>
        <time>2021-07-08T12:04:28Z</time>
      </trkpt>
      <trkpt lat="44.80667" lon="6.93627">
        <ele>1716</ele>
        <time>2021-07-08T12:04:59Z</time>
      </trkpt>
      <trkpt lat="44.80651" lon="6.93599">
        <ele>1710.5</ele>
        <time>2021-07-08T12:05:29Z</time>
      </trkpt>
      <trkpt lat="44.80627" lon="6.93576">
        <ele>1704.3</ele>
        <time>2021-07-08T12:06:00Z</time>
      </trkpt>
      <trkpt lat="44.80596" lon="6.93565">
        <ele>1700.4</ele>
        <time>2021-07-08T12:06:30Z</time>
      </trkpt>
      <trkpt lat="44.80556" lon="6.9355">
        <ele>1694.5</ele>
        <time>2021-07-08T12:07:01Z</time>
      </trkpt>
      <trkpt lat="44.80534" lon="6.93528">
        <ele>1689.3</ele>
        <time>2021-07-08T12:07:31Z</time>
      </trkpt>
      <trkpt lat="44.80505" lon="6.93501">
        <ele>1682.4</ele>
        <time>2021-07-08T12:08:01Z</time>
      </trkpt>
      <trkpt lat="44.80468" lon="6.93505">
        <ele>1682.6</ele>
        <time>2021-07-08T12:08:32Z</time>
      </trkpt>
      <trkpt lat="44.80431" lon="6.93494">
        <ele>1677.9</ele>
        <time>2021-07-08T12:09:02Z</time>
      </trkpt>
      <trkpt lat="44.80398" lon="6.93479">
        <ele>1672.1</ele>
        <time>2021-07-08T12:09:32Z</time>
      </trkpt>
      <trkpt lat="44.80365" lon="6.93451">
        <ele>1669.3</ele>
        <time>2021-07-08T12:10:03Z</time>
      </trkpt>
      <trkpt lat="44.80339" lon="6.93437">
        <ele>1669.6</ele>
        <time>2021-07-08T12:10:34Z</time>
      </trkpt>
      <trkpt lat="44.80288" lon="6.93427">
        <ele>1689.1</ele>
        <time>2021-07-08T12:11:05Z</time>
      </trkpt>
      <trkpt lat="44.80252" lon="6.93446">
        <ele>1692.9</ele>
        <time>2021-07-08T12:11:36Z</time>
      </trkpt>
      <trkpt lat="44.80213" lon="6.93476">
        <ele>1705.6</ele>
        <time>2021-07-08T12:12:07Z</time>
      </trkpt>
      <trkpt lat="44.80184" lon="6.93505">
        <ele>1709.5</ele>
        <time>2021-07-08T12:12:38Z</time>
      </trkpt>
      <trkpt lat="44.80149" lon="6.93495">
        <ele>1708.2</ele>
        <time>2021-07-08T12:13:08Z</time>
      </trkpt>
      <trkpt lat="44.80126" lon="6.93478">
        <ele>1706.5</ele>
        <time>2021-07-08T12:13:38Z</time>
      </trkpt>
      <trkpt lat="44.80118" lon="6.93471">
        <ele>1721.7</ele>
        <time>2021-07-08T12:15:11Z</time>
      </trkpt>
      <trkpt lat="44.801" lon="6.93455">
        <ele>1723.4</ele>
        <time>2021-07-08T12:15:41Z</time>
      </trkpt>
      <trkpt lat="44.8008" lon="6.93448">
        <ele>1722.7</ele>
        <time>2021-07-08T12:16:11Z</time>
      </trkpt>
      <trkpt lat="44.80073" lon="6.93432">
        <ele>1722.2</ele>
        <time>2021-07-08T12:16:42Z</time>
      </trkpt>
      <trkpt lat="44.80088" lon="6.93399">
        <ele>1719.7</ele>
        <time>2021-07-08T12:17:13Z</time>
      </trkpt>
      <trkpt lat="44.80086" lon="6.93366">
        <ele>1713</ele>
        <time>2021-07-08T12:17:44Z</time>
      </trkpt>
      <trkpt lat="44.80067" lon="6.93338">
        <ele>1706.6</ele>
        <time>2021-07-08T12:18:14Z</time>
      </trkpt>
      <trkpt lat="44.80047" lon="6.93314">
        <ele>1696.7</ele>
        <time>2021-07-08T12:18:45Z</time>
      </trkpt>
      <trkpt lat="44.80027" lon="6.93301">
        <ele>1689.2</ele>
        <time>2021-07-08T12:19:16Z</time>
      </trkpt>
      <trkpt lat="44.80021" lon="6.93283">
        <ele>1680</ele>
        <time>2021-07-08T12:19:47Z</time>
      </trkpt>
      <trkpt lat="44.80012" lon="6.93276">
        <ele>1669.3</ele>
        <time>2021-07-08T12:20:32Z</time>
      </trkpt>
      <trkpt lat="44.80003" lon="6.93267">
        <ele>1664.8</ele>
        <time>2021-07-08T12:21:03Z</time>
      </trkpt>
      <trkpt lat="44.79975" lon="6.93262">
        <ele>1660.3</ele>
        <time>2021-07-08T12:21:33Z</time>
      </trkpt>
      <trkpt lat="44.79949" lon="6.93255">
        <ele>1656.5</ele>
        <time>2021-07-08T12:22:03Z</time>
      </trkpt>
      <trkpt lat="44.79923" lon="6.93237">
        <ele>1648.2</ele>
        <time>2021-07-08T12:22:33Z</time>
      </trkpt>
      <trkpt lat="44.79891" lon="6.93231">
        <ele>1642.1</ele>
        <time>2021-07-08T12:23:04Z</time>
      </trkpt>
      <trkpt lat="44.79867" lon="6.93234">
        <ele>1639.4</ele>
        <time>2021-07-08T12:23:35Z</time>
      </trkpt>
      <trkpt lat="44.79848" lon="6.93208">
        <ele>1641.5</ele>
        <time>2021-07-08T12:24:06Z</time>
      </trkpt>
      <trkpt lat="44.7981" lon="6.93197">
        <ele>1637.6</ele>
        <time>2021-07-08T12:24:36Z</time>
      </trkpt>
      <trkpt lat="44.7978" lon="6.93192">
        <ele>1630.9</ele>
        <time>2021-07-08T12:25:07Z</time>
      </trkpt>
      <trkpt lat="44.79769" lon="6.93164">
        <ele>1623.1</ele>
        <time>2021-07-08T12:25:37Z</time>
      </trkpt>
      <trkpt lat="44.79752" lon="6.93133">
        <ele>1621.4</ele>
        <time>2021-07-08T12:26:08Z</time>
      </trkpt>
      <trkpt lat="44.79737" lon="6.93112">
        <ele>1618</ele>
        <time>2021-07-08T12:26:38Z</time>
      </trkpt>
      <trkpt lat="44.79722" lon="6.93078">
        <ele>1614.3</ele>
        <time>2021-07-08T12:27:08Z</time>
      </trkpt>
      <trkpt lat="44.79705" lon="6.93046">
        <ele>1608.2</ele>
        <time>2021-07-08T12:27:38Z</time>
      </trkpt>
      <trkpt lat="44.79672" lon="6.93047">
        <ele>1600.1</ele>
        <time>2021-07-08T12:28:09Z</time>
      </trkpt>
      <trkpt lat="44.7965" lon="6.93036">
        <ele>1587.5</ele>
        <time>2021-07-08T12:28:39Z</time>
      </trkpt>
      <trkpt lat="44.79623" lon="6.93032">
        <ele>1579.1</ele>
        <time>2021-07-08T12:29:10Z</time>
      </trkpt>
      <trkpt lat="44.79623" lon="6.93002">
        <ele>1571.9</ele>
        <time>2021-07-08T12:29:40Z</time>
      </trkpt>
      <trkpt lat="44.79648" lon="6.92978">
        <ele>1569.2</ele>
        <time>2021-07-08T12:30:11Z</time>
      </trkpt>
      <trkpt lat="44.79656" lon="6.92969">
        <ele>1565.6</ele>
        <time>2021-07-08T12:31:02Z</time>
      </trkpt>
      <trkpt lat="44.79684" lon="6.92949">
        <ele>1559</ele>
        <time>2021-07-08T12:31:33Z</time>
      </trkpt>
      <trkpt lat="44.79712" lon="6.92935">
        <ele>1551.4</ele>
        <time>2021-07-08T12:32:03Z</time>
      </trkpt>
      <trkpt lat="44.79687" lon="6.9292">
        <ele>1544.5</ele>
        <time>2021-07-08T12:32:35Z</time>
      </trkpt>
      <trkpt lat="44.79659" lon="6.92928">
        <ele>1538.2</ele>
        <time>2021-07-08T12:33:05Z</time>
      </trkpt>
      <trkpt lat="44.79632" lon="6.92919">
        <ele>1530.2</ele>
        <time>2021-07-08T12:33:35Z</time>
      </trkpt>
      <trkpt lat="44.79597" lon="6.9291">
        <ele>1522.3</ele>
        <time>2021-07-08T12:34:06Z</time>
      </trkpt>
      <trkpt lat="44.79566" lon="6.92926">
        <ele>1517.7</ele>
        <time>2021-07-08T12:34:37Z</time>
      </trkpt>
      <trkpt lat="44.7956" lon="6.92893">
        <ele>1515.3</ele>
        <time>2021-07-08T12:35:08Z</time>
      </trkpt>
      <trkpt lat="44.79558" lon="6.92863">
        <ele>1511.5</ele>
        <time>2021-07-08T12:35:39Z</time>
      </trkpt>
      <trkpt lat="44.79549" lon="6.92866">
        <ele>1509</ele>
        <time>2021-07-08T12:37:00Z</time>
      </trkpt>
      <trkpt lat="44.79521" lon="6.92854">
        <ele>1510.2</ele>
        <time>2021-07-08T12:37:31Z</time>
      </trkpt>
      <trkpt lat="44.79508" lon="6.92819">
        <ele>1507.6</ele>
        <time>2021-07-08T12:38:01Z</time>
      </trkpt>
      <trkpt lat="44.79505" lon="6.92768">
        <ele>1506.6</ele>
        <time>2021-07-08T12:38:32Z</time>
      </trkpt>
      <trkpt lat="44.79497" lon="6.9273">
        <ele>1504.6</ele>
        <time>2021-07-08T12:39:02Z</time>
      </trkpt>
      <trkpt lat="44.79515" lon="6.92696">
        <ele>1502.9</ele>
        <time>2021-07-08T12:39:32Z</time>
      </trkpt>
      <trkpt lat="44.79528" lon="6.92663">
        <ele>1506</ele>
        <time>2021-07-08T12:40:03Z</time>
      </trkpt>
      <trkpt lat="44.795" lon="6.92631">
        <ele>1505</ele>
        <time>2021-07-08T12:40:34Z</time>
      </trkpt>
    </trkseg>
  </trk>
</gpx>